KMEI/MEI METAR and TAF weather

Enter ICAO airport designator
Station Type Date Time Source
KMEI METAR 2023/02/05 13:58 UTC NOAA

KMEI 051358Z 00000KT 10SM CLR 03/01 A3030 RMK AO2 SLP261 I1004 T00330011


Station Type Date Time Source
KMEI Decoded METAR 2023/02/05 13:58 UTC NOAA

MERIDIAN KEY FIELD, MS, United States (KMEI) 32-20N 088-45W 89M
Feb 05, 2023 - 08:58 AM EST / 2023.02.05 1358 UTC
Wind: Calm:0
Visibility: 10 mile(s):0
Sky conditions: clear
Temperature: 37.9 F (3.3 C)
Dew Point: 34.0 F (1.1 C)
Relative Humidity: 85%
Pressure (altimeter): 30.3 in. Hg (1026 hPa)
ob: KMEI 051358Z 00000KT 10SM CLR 03/01 A3030 RMK AO2 SLP261 I1004 T00330011
cycle: 14

Station Type Date Time Source
KMEI TAF 2023/02/05 12:58 UTC NOAA

TAF KMEI 051157Z 0512/0612 18007KT P6SM SCT050

Example: see airport list